Urb La Rosaleda I, Puerto Rico
Current Conditions -  °F | °C
As of 7:56 PM on Tuesday 25 Nov 2014 (Local Time) from TJSJ Reporting Station
Scattered Clouds Scattered Clouds  
Wind Chill: 80°   Ceiling: Unl
Heat Index: 84°   Visibility: 10mi
Dew Point: 72°   Wind: 8mph
Humidity: 76%   Direction: 90°E
Pressure: 30.03"   Gusts: NA
Location:  18.4519°N, 66.1817°W
Report Text: TJSJ 252356Z 09007KT 10SM SCT033 27/22 A3003 RMK AO2 SLP168 T02670222 10283 20261 53009
Loading
Personal Weather Stations






























Interactive Weather Map New forecast layout! Learn more

10-Day Weather Forecast

Advertisements
Track Severe Weather on mobile